createdAt,value
2018-09-08T00:01:32.756Z,11.55
2018-09-08T00:04:06.283Z,11.58
2018-09-08T00:06:39.656Z,11.58
2018-09-08T00:09:13.003Z,11.60
2018-09-08T00:11:46.405Z,11.58
2018-09-08T00:14:19.698Z,11.55
2018-09-08T00:16:58.197Z,11.54
2018-09-08T00:19:36.994Z,11.55
2018-09-08T00:22:15.563Z,11.56
2018-09-08T00:24:54.304Z,11.53
2018-09-08T00:27:31.792Z,11.52
2018-09-08T00:30:09.211Z,11.52
2018-09-08T00:32:42.534Z,11.54
2018-09-08T00:35:16.039Z,11.52
2018-09-08T00:37:49.393Z,11.50
2018-09-08T00:40:22.724Z,11.50
2018-09-08T00:42:56.057Z,11.54
2018-09-08T00:45:29.377Z,11.53
2018-09-08T00:48:02.829Z,11.56
2018-09-08T00:50:36.155Z,11.56
2018-09-08T00:53:09.476Z,11.50
2018-09-08T00:55:43.170Z,11.47
2018-09-08T00:58:16.864Z,11.54
2018-09-08T01:00:50.202Z,11.55
2018-09-08T01:03:23.562Z,11.61
2018-09-08T01:05:56.943Z,11.58
2018-09-08T01:08:30.460Z,11.62
2018-09-08T01:11:03.814Z,11.59
2018-09-08T01:13:37.793Z,11.68
2018-09-08T01:16:11.085Z,11.74
2018-09-08T01:18:44.393Z,11.84
2018-09-08T01:21:17.956Z,11.92
2018-09-08T01:23:53.412Z,12.03
2018-09-08T01:26:26.717Z,12.12
2018-09-08T01:29:00.037Z,12.13
2018-09-08T01:31:33.470Z,12.32
2018-09-08T01:34:08.164Z,12.35
2018-09-08T01:36:41.700Z,12.36
2018-09-08T01:39:15.258Z,12.41
2018-09-08T01:41:48.586Z,12.51
2018-09-08T01:44:21.985Z,12.46
2018-09-08T01:46:55.277Z,12.49
2018-09-08T01:49:28.688Z,12.53
2018-09-08T01:52:01.973Z,12.56
2018-09-08T01:54:35.330Z,12.53
2018-09-08T01:57:08.624Z,12.54
2018-09-08T01:59:41.976Z,12.61
2018-09-08T02:02:15.259Z,12.62
2018-09-08T02:04:48.573Z,12.65
2018-09-08T02:07:22.025Z,12.61
2018-09-08T02:09:55.416Z,12.54
2018-09-08T02:12:28.722Z,12.57
2018-09-08T02:15:03.264Z,12.48
2018-09-08T02:17:36.597Z,12.53
2018-09-08T02:20:09.964Z,12.51
2018-09-08T02:22:43.265Z,12.54
2018-09-08T02:25:16.646Z,12.49
2018-09-08T02:27:51.082Z,12.55
2018-09-08T02:30:24.401Z,12.59
2018-09-08T02:32:57.728Z,12.51
2018-09-08T02:35:31.089Z,12.53
2018-09-08T02:38:04.421Z,12.51
2018-09-08T02:40:37.987Z,12.49
2018-09-08T02:43:11.291Z,12.52
2018-09-08T02:45:44.658Z,12.49
2018-09-08T02:48:18.527Z,12.47
2018-09-08T02:50:50.785Z,12.45
2018-09-08T02:53:23.009Z,12.41
2018-09-08T02:55:55.227Z,12.40
2018-09-08T02:58:27.445Z,12.43
2018-09-08T03:00:59.940Z,12.44
2018-09-08T03:03:32.146Z,12.43
2018-09-08T03:06:04.364Z,12.38
2018-09-08T03:08:36.578Z,12.27
2018-09-08T03:11:08.816Z,12.24
2018-09-08T03:13:41.033Z,12.23
2018-09-08T03:16:13.261Z,12.26
2018-09-08T03:18:45.497Z,12.25
2018-09-08T03:21:17.711Z,12.22
2018-09-08T03:23:49.936Z,12.23
2018-09-08T03:26:22.145Z,12.25
2018-09-08T03:28:54.378Z,12.26
2018-09-08T03:31:26.589Z,12.25
2018-09-08T03:33:58.822Z,12.23
2018-09-08T03:36:31.932Z,12.16
2018-09-08T03:39:04.952Z,12.08
2018-09-08T03:41:37.185Z,12.04
2018-09-08T03:44:09.426Z,12.05
2018-09-08T03:46:41.625Z,11.99
2018-09-08T03:49:14.853Z,11.97
2018-09-08T03:51:47.063Z,12.01
2018-09-08T03:54:19.288Z,11.98
2018-09-08T03:56:52.428Z,11.87
2018-09-08T03:59:24.648Z,11.90
2018-09-08T04:01:56.857Z,11.91
2018-09-08T04:04:30.172Z,11.94
2018-09-08T04:07:03.464Z,11.94
2018-09-08T04:09:36.965Z,11.88
2018-09-08T04:12:10.320Z,11.85
2018-09-08T04:14:43.661Z,11.91
2018-09-08T04:17:16.972Z,11.90
2018-09-08T04:19:50.297Z,11.94
2018-09-08T04:22:30.878Z,11.90
2018-09-08T04:25:05.605Z,11.95
2018-09-08T04:27:38.892Z,12.00
2018-09-08T04:30:12.209Z,12.00
2018-09-08T04:32:45.514Z,12.02
2018-09-08T04:35:18.828Z,11.99
2018-09-08T04:37:53.045Z,11.99
2018-09-08T04:40:26.409Z,11.96
2018-09-08T04:43:00.748Z,11.97
2018-09-08T04:45:34.055Z,12.00
2018-09-08T04:48:08.410Z,12.02
2018-09-08T04:50:42.945Z,12.04
2018-09-08T04:53:16.276Z,12.05
2018-09-08T04:55:49.588Z,12.08
2018-09-08T04:58:23.684Z,12.11
2018-09-08T05:00:56.993Z,12.18
2018-09-08T05:03:30.284Z,12.16
2018-09-08T05:06:03.592Z,12.21
2018-09-08T05:08:37.195Z,12.20
2018-09-08T05:11:10.539Z,12.23
2018-09-08T05:13:43.897Z,12.20
2018-09-08T05:16:17.204Z,12.22
2018-09-08T05:18:50.552Z,12.24
2018-09-08T05:21:23.869Z,12.29
2018-09-08T05:23:57.387Z,12.33
2018-09-08T05:26:30.700Z,12.35
2018-09-08T05:29:03.988Z,12.35
2018-09-08T05:31:37.445Z,12.39
2018-09-08T05:34:10.857Z,12.46
2018-09-08T05:36:44.203Z,12.50
2018-09-08T05:39:17.492Z,12.60
2018-09-08T05:41:50.822Z,12.69
2018-09-08T05:44:24.124Z,12.79
2018-09-08T05:46:57.440Z,12.89
2018-09-08T05:49:30.737Z,12.98
2018-09-08T05:52:04.047Z,13.12
2018-09-08T05:54:37.413Z,13.28
2018-09-08T05:57:10.733Z,13.53
2018-09-08T05:59:44.056Z,13.54
2018-09-08T06:02:17.441Z,13.70
2018-09-08T06:04:50.993Z,13.79
2018-09-08T06:07:24.305Z,13.88
2018-09-08T06:09:58.269Z,14.00
2018-09-08T06:12:31.649Z,14.02
2018-09-08T06:15:05.830Z,14.07
2018-09-08T06:17:39.218Z,14.19
2018-09-08T06:20:12.565Z,14.20
2018-09-08T06:22:45.891Z,14.26
2018-09-08T06:25:19.213Z,14.39
2018-09-08T06:27:52.660Z,14.48
2018-09-08T06:30:26.033Z,14.67
2018-09-08T06:33:00.118Z,14.93
2018-09-08T06:35:33.641Z,15.18
2018-09-08T06:38:08.004Z,15.39
2018-09-08T06:40:41.324Z,15.50
2018-09-08T06:43:14.882Z,15.68
2018-09-08T06:45:48.177Z,15.90
2018-09-08T06:48:21.950Z,16.07
2018-09-08T06:50:55.265Z,16.18
2018-09-08T06:53:28.729Z,16.27
2018-09-08T06:56:02.053Z,16.41
2018-09-08T06:58:35.396Z,16.40
2018-09-08T07:01:08.688Z,16.65
2018-09-08T07:03:42.010Z,16.74
2018-09-08T07:06:15.318Z,16.71
2018-09-08T07:08:48.748Z,16.77
2018-09-08T07:11:22.161Z,16.81
2018-09-08T07:13:55.533Z,17.05
2018-09-08T07:16:28.879Z,17.16
2018-09-08T07:19:02.222Z,17.19
2018-09-08T07:21:35.556Z,17.26
2018-09-08T07:24:08.877Z,17.45
2018-09-08T07:26:42.339Z,17.50
2018-09-08T07:29:15.784Z,17.62
2018-09-08T07:31:49.087Z,17.72
2018-09-08T07:34:22.429Z,17.82
2018-09-08T07:36:55.760Z,17.96
2018-09-08T07:39:29.088Z,18.00
2018-09-08T07:42:02.404Z,18.09
2018-09-08T07:44:35.765Z,18.15
2018-09-08T07:47:09.046Z,18.24
2018-09-08T07:49:42.452Z,18.22
2018-09-08T07:52:15.761Z,18.37
2018-09-08T07:54:49.109Z,18.47
2018-09-08T07:57:22.423Z,18.56
2018-09-08T07:59:55.763Z,18.59
2018-09-08T08:02:29.082Z,18.68
2018-09-08T08:05:02.414Z,18.88
2018-09-08T08:07:35.809Z,18.89
2018-09-08T08:10:09.122Z,19.08
2018-09-08T08:12:42.451Z,19.32
2018-09-08T08:15:15.813Z,19.40
2018-09-08T08:17:49.150Z,19.46
2018-09-08T08:20:22.477Z,19.76
2018-09-08T08:22:55.790Z,19.83
2018-09-08T08:25:29.126Z,19.97
2018-09-08T08:28:02.540Z,20.13
2018-09-08T08:30:35.884Z,20.17
2018-09-08T08:33:09.190Z,20.38
2018-09-08T08:35:42.497Z,20.63
2018-09-08T08:38:15.881Z,20.77
2018-09-08T08:40:49.190Z,20.88
2018-09-08T08:43:22.606Z,21.06
2018-09-08T08:45:55.878Z,21.08
2018-09-08T08:48:29.420Z,20.80
2018-09-08T08:51:14.009Z,20.59
2018-09-08T08:53:58.697Z,20.74
2018-09-08T08:56:32.101Z,20.63
2018-09-08T08:59:06.142Z,20.54
2018-09-08T09:01:39.517Z,20.22
2018-09-08T09:04:13.001Z,20.28
2018-09-08T09:06:46.301Z,20.13
2018-09-08T09:09:19.649Z,20.08
2018-09-08T09:11:53.356Z,20.24
2018-09-08T09:14:26.279Z,20.43
2018-09-08T09:16:59.572Z,20.38
2018-09-08T09:19:44.602Z,20.37
2018-09-08T09:22:29.680Z,20.38
2018-09-08T09:25:06.080Z,20.71
2018-09-08T09:27:41.878Z,21.04
2018-09-08T09:30:15.902Z,21.25
2018-09-08T09:32:49.252Z,21.24
2018-09-08T09:35:23.274Z,20.96
2018-09-08T09:37:56.604Z,20.78
2018-09-08T09:40:29.914Z,20.53
2018-09-08T09:43:03.202Z,20.41
2018-09-08T09:45:36.925Z,20.15
2018-09-08T09:48:10.236Z,20.08
2018-09-08T09:50:43.563Z,19.98
2018-09-08T09:53:17.088Z,20.05
2018-09-08T09:55:50.417Z,20.34
2018-09-08T09:58:24.430Z,20.59
2018-09-08T10:01:04.046Z,20.64
2018-09-08T10:03:37.414Z,20.91
2018-09-08T10:06:11.296Z,21.20
2018-09-08T10:08:44.681Z,21.05
2018-09-08T10:11:18.253Z,21.24
2018-09-08T10:13:51.565Z,21.37
2018-09-08T10:16:24.881Z,21.44
2018-09-08T10:18:58.258Z,21.51
2018-09-08T10:21:31.578Z,21.43
2018-09-08T10:24:05.556Z,21.36
2018-09-08T10:26:38.317Z,21.25
2018-09-08T10:29:11.739Z,21.19
2018-09-08T10:31:45.806Z,21.26
2018-09-08T10:34:18.691Z,21.31
2018-09-08T10:36:52.029Z,21.23
2018-09-08T10:39:25.515Z,21.07
2018-09-08T10:41:59.070Z,21.16
2018-09-08T10:44:32.433Z,21.16
2018-09-08T10:47:05.853Z,21.42
2018-09-08T10:49:39.160Z,21.84
2018-09-08T10:52:21.254Z,22.07
2018-09-08T10:54:54.620Z,22.24
2018-09-08T10:57:27.939Z,22.24
2018-09-08T11:00:01.956Z,22.61
2018-09-08T11:02:35.677Z,22.70
2018-09-08T11:05:08.838Z,22.69
2018-09-08T11:07:42.170Z,22.87
2018-09-08T11:10:15.552Z,23.01
2018-09-08T11:12:48.864Z,23.06
2018-09-08T11:15:22.241Z,23.02
2018-09-08T11:17:55.574Z,22.89
2018-09-08T11:20:28.896Z,22.54
2018-09-08T11:23:02.211Z,22.77
2018-09-08T11:25:35.545Z,23.18
2018-09-08T11:28:08.858Z,23.38
2018-09-08T11:30:42.785Z,23.18
2018-09-08T11:33:16.152Z,22.98
2018-09-08T11:35:49.456Z,22.98
2018-09-08T11:38:22.915Z,22.97
2018-09-08T11:40:56.144Z,22.95
2018-09-08T11:43:29.469Z,22.69
2018-09-08T11:46:02.773Z,22.69
2018-09-08T11:48:36.113Z,22.79
2018-09-08T11:51:09.420Z,22.81
2018-09-08T11:53:42.742Z,22.85
2018-09-08T11:56:16.099Z,22.70
2018-09-08T11:58:49.404Z,22.60
2018-09-08T12:01:22.758Z,22.60
2018-09-08T12:03:56.193Z,22.67
2018-09-08T12:06:29.554Z,22.84
2018-09-08T12:09:02.949Z,22.67
2018-09-08T12:11:36.313Z,22.65
2018-09-08T12:14:10.996Z,22.48
2018-09-08T12:16:44.797Z,22.53
2018-09-08T12:19:18.153Z,22.53
2018-09-08T12:21:52.006Z,22.57
2018-09-08T12:24:25.360Z,22.74
2018-09-08T12:26:59.493Z,22.98
2018-09-08T12:29:32.824Z,22.98
2018-09-08T12:32:06.235Z,22.83
2018-09-08T12:34:39.642Z,22.66
2018-09-08T12:37:13.341Z,22.65
2018-09-08T12:39:46.623Z,22.43
2018-09-08T12:42:19.919Z,22.41
2018-09-08T12:44:53.273Z,22.45
2018-09-08T12:47:26.571Z,22.41
2018-09-08T12:49:59.878Z,22.33
2018-09-08T12:52:33.176Z,22.50
2018-09-08T12:55:07.385Z,22.58
2018-09-08T12:57:40.674Z,22.39
2018-09-08T13:00:13.973Z,22.55
2018-09-08T13:02:47.320Z,22.51
2018-09-08T13:05:21.169Z,22.69
2018-09-08T13:07:54.501Z,22.71
2018-09-08T13:10:28.071Z,22.73
2018-09-08T13:13:01.426Z,22.72
2018-09-08T13:15:34.741Z,22.65
2018-09-08T13:18:08.520Z,22.35
2018-09-08T13:20:41.860Z,22.18
2018-09-08T13:23:15.656Z,21.97
2018-09-08T13:25:48.981Z,22.08
2018-09-08T13:28:22.632Z,22.33
2018-09-08T13:30:55.936Z,22.56
2018-09-08T13:33:29.244Z,22.55
2018-09-08T13:36:02.596Z,22.64
2018-09-08T13:38:35.938Z,22.63
2018-09-08T13:41:09.260Z,22.59
2018-09-08T13:43:42.616Z,22.48
2018-09-08T13:46:15.932Z,22.33
2018-09-08T13:48:49.227Z,22.39
2018-09-08T13:51:22.545Z,22.43
2018-09-08T13:53:55.840Z,22.42
2018-09-08T13:56:29.156Z,22.39
2018-09-08T13:59:02.464Z,22.35
2018-09-08T14:01:35.805Z,22.21
2018-09-08T14:04:09.212Z,22.09
2018-09-08T14:06:42.499Z,22.18
2018-09-08T14:09:15.821Z,22.25
2018-09-08T14:11:49.188Z,22.11
2018-09-08T14:14:22.477Z,22.11
2018-09-08T14:16:55.848Z,22.09
2018-09-08T14:19:29.133Z,21.98
2018-09-08T14:22:02.444Z,21.94
2018-09-08T14:24:35.800Z,22.03
2018-09-08T14:27:09.128Z,22.07
2018-09-08T14:29:42.441Z,22.02
2018-09-08T14:32:15.993Z,21.95
2018-09-08T14:34:49.287Z,22.03
2018-09-08T14:37:23.221Z,22.08
2018-09-08T14:39:56.513Z,22.04
2018-09-08T14:42:29.858Z,22.06
2018-09-08T14:45:03.170Z,22.03
2018-09-08T14:47:36.818Z,22.10
2018-09-08T14:50:10.062Z,22.10
2018-09-08T14:52:43.368Z,22.09
2018-09-08T14:55:16.687Z,21.99
2018-09-08T14:57:50.019Z,22.01
2018-09-08T15:00:23.335Z,22.09
2018-09-08T15:02:56.793Z,22.06
2018-09-08T15:05:30.084Z,21.90
2018-09-08T15:08:03.418Z,21.83
2018-09-08T15:10:36.751Z,21.76
2018-09-08T15:13:10.068Z,21.74
2018-09-08T15:15:43.372Z,21.71
2018-09-08T15:18:17.091Z,21.73
2018-09-08T15:20:50.390Z,21.78
2018-09-08T15:23:23.701Z,21.72
2018-09-08T15:25:56.997Z,21.70
2018-09-08T15:28:30.392Z,21.61
2018-09-08T15:31:03.694Z,21.59
2018-09-08T15:33:37.689Z,21.57
2018-09-08T15:36:10.988Z,21.46
2018-09-08T15:38:44.300Z,21.41
2018-09-08T15:41:17.601Z,21.31
2018-09-08T15:43:50.933Z,21.28
2018-09-08T15:46:24.235Z,21.29
2018-09-08T15:48:57.584Z,21.27
2018-09-08T15:51:30.942Z,21.23
2018-09-08T15:54:04.247Z,21.17
2018-09-08T15:56:37.595Z,21.20
2018-09-08T15:59:10.915Z,21.29
2018-09-08T16:01:44.231Z,21.28
2018-09-08T16:04:17.563Z,21.26
2018-09-08T16:06:57.336Z,21.23
2018-09-08T16:09:30.677Z,21.24
2018-09-08T16:12:05.680Z,21.17
2018-09-08T16:14:39.021Z,21.10
2018-09-08T16:17:12.312Z,21.06
2018-09-08T16:19:45.885Z,21.07
2018-09-08T16:22:19.245Z,21.13
2018-09-08T16:24:52.713Z,21.12
2018-09-08T16:27:26.006Z,21.03
2018-09-08T16:29:59.488Z,20.95
2018-09-08T16:32:32.832Z,20.98
2018-09-08T16:35:06.596Z,20.94
2018-09-08T16:37:40.533Z,20.86
2018-09-08T16:40:14.746Z,20.79
2018-09-08T16:42:48.124Z,20.73
2018-09-08T16:45:21.797Z,20.67
2018-09-08T16:47:55.088Z,20.61
2018-09-08T16:50:28.559Z,20.63
2018-09-08T16:53:01.971Z,20.63
2018-09-08T16:55:35.305Z,20.65
2018-09-08T16:58:09.211Z,20.66
2018-09-08T17:00:42.675Z,20.66
2018-09-08T17:03:15.976Z,20.61
2018-09-08T17:05:49.878Z,20.56
2018-09-08T17:08:23.253Z,20.51
2018-09-08T17:10:57.031Z,20.38
2018-09-08T17:13:30.342Z,20.29
2018-09-08T17:16:04.028Z,20.27
2018-09-08T17:18:37.675Z,20.18
2018-09-08T17:21:12.272Z,20.17
2018-09-08T17:23:45.661Z,20.12
2018-09-08T17:26:19.633Z,20.05
2018-09-08T17:28:52.993Z,19.96
2018-09-08T17:31:27.313Z,19.94
2018-09-08T17:34:00.762Z,19.93
2018-09-08T17:36:34.100Z,19.88
2018-09-08T17:39:09.688Z,19.85
2018-09-08T17:41:43.061Z,19.83
2018-09-08T17:44:16.410Z,19.82
2018-09-08T17:46:49.709Z,19.77
2018-09-08T17:49:23.080Z,19.73
2018-09-08T17:51:56.408Z,19.67
2018-09-08T17:54:29.791Z,19.61
2018-09-08T17:57:03.228Z,19.53
2018-09-08T17:59:36.533Z,19.45
2018-09-08T18:02:09.841Z,19.39
2018-09-08T18:04:43.213Z,19.34
2018-09-08T18:07:17.825Z,19.29
2018-09-08T18:09:51.340Z,19.24
2018-09-08T18:12:24.636Z,19.18
2018-09-08T18:14:58.163Z,19.08
2018-09-08T18:17:31.496Z,19.01
2018-09-08T18:20:05.152Z,18.96
2018-09-08T18:22:38.477Z,18.93
2018-09-08T18:25:11.837Z,18.89
2018-09-08T18:27:45.129Z,18.84
2018-09-08T18:30:18.450Z,18.80
2018-09-08T18:32:51.817Z,18.76
2018-09-08T18:35:25.097Z,18.68
2018-09-08T18:37:58.406Z,18.64
2018-09-08T18:40:31.715Z,18.57
2018-09-08T18:43:05.077Z,18.51
2018-09-08T18:45:38.389Z,18.44
2018-09-08T18:48:11.722Z,18.35
2018-09-08T18:50:45.056Z,18.27
2018-09-08T18:53:18.605Z,18.19
2018-09-08T18:55:51.935Z,18.15
2018-09-08T18:58:25.281Z,18.09
2018-09-08T19:00:58.584Z,18.06
2018-09-08T19:03:31.876Z,18.03
2018-09-08T19:06:05.224Z,18.03
2018-09-08T19:08:43.136Z,18.02
2018-09-08T19:11:16.564Z,18.02
2018-09-08T19:13:49.777Z,18.01
2018-09-08T19:16:23.160Z,18.01
2018-09-08T19:18:56.436Z,17.98
2018-09-08T19:21:30.770Z,17.96
2018-09-08T19:24:09.961Z,17.96
2018-09-08T19:26:43.273Z,17.93
2018-09-08T19:29:21.904Z,17.89
2018-09-08T19:31:55.244Z,17.83
2018-09-08T19:34:28.568Z,17.81
2018-09-08T19:37:01.876Z,17.79
2018-09-08T19:39:35.455Z,17.75
2018-09-08T19:42:08.767Z,17.74
2018-09-08T19:44:42.066Z,17.71
2018-09-08T19:47:21.318Z,17.70
2018-09-08T19:49:54.610Z,17.67
2018-09-08T19:52:33.155Z,17.63
2018-09-08T19:55:06.448Z,17.58
2018-09-08T19:57:45.118Z,17.53
2018-09-08T20:00:18.448Z,17.47
2018-09-08T20:02:51.766Z,17.43
2018-09-08T20:05:25.067Z,17.39
2018-09-08T20:07:58.454Z,17.32
2018-09-08T20:10:31.737Z,17.26
2018-09-08T20:13:05.081Z,17.17
2018-09-08T20:15:38.386Z,17.14
2018-09-08T20:18:11.712Z,17.10
2018-09-08T20:20:44.991Z,17.05
2018-09-08T20:23:18.311Z,17.03
2018-09-08T20:25:51.618Z,17.00
2018-09-08T20:28:24.946Z,16.98
2018-09-08T20:30:58.234Z,16.93
2018-09-08T20:33:32.033Z,16.89
2018-09-08T20:36:05.347Z,16.85
2018-09-08T20:38:38.674Z,16.83
2018-09-08T20:41:11.961Z,16.83
2018-09-08T20:43:45.285Z,16.81
2018-09-08T20:46:19.009Z,16.77
2018-09-08T20:48:52.313Z,16.74
2018-09-08T20:51:25.610Z,16.73
2018-09-08T20:53:59.037Z,16.71
2018-09-08T20:56:32.342Z,16.68
2018-09-08T20:59:05.873Z,16.66
2018-09-08T21:01:39.153Z,16.63
2018-09-08T21:04:12.541Z,16.61
2018-09-08T21:06:45.844Z,16.57
2018-09-08T21:09:19.169Z,16.57
2018-09-08T21:11:52.490Z,16.59
2018-09-08T21:14:25.806Z,16.60
2018-09-08T21:16:59.085Z,16.60
2018-09-08T21:19:32.405Z,16.59
2018-09-08T21:22:05.719Z,16.59
2018-09-08T21:24:39.038Z,16.56
2018-09-08T21:27:12.414Z,16.56
2018-09-08T21:29:45.757Z,16.55
2018-09-08T21:32:19.060Z,16.53
2018-09-08T21:34:52.381Z,16.49
2018-09-08T21:37:25.696Z,16.46
2018-09-08T21:39:59.010Z,16.46
2018-09-08T21:42:32.301Z,16.46
2018-09-08T21:45:05.868Z,16.45
2018-09-08T21:47:39.153Z,16.44
2018-09-08T21:50:12.547Z,16.45
2018-09-08T21:52:45.846Z,16.47
2018-09-08T21:55:19.144Z,16.48
2018-09-08T21:57:52.437Z,16.50
2018-09-08T22:00:25.758Z,16.45
2018-09-08T22:02:59.050Z,16.46
2018-09-08T22:05:32.389Z,16.48
2018-09-08T22:08:05.769Z,16.48
2018-09-08T22:10:39.065Z,16.49
2018-09-08T22:13:12.362Z,16.49
2018-09-08T22:15:45.689Z,16.50
2018-09-08T22:18:18.999Z,16.49
2018-09-08T22:20:52.377Z,16.48
2018-09-08T22:23:25.761Z,16.47
2018-09-08T22:25:59.071Z,16.48
2018-09-08T22:28:32.411Z,16.44
2018-09-08T22:31:06.309Z,16.43
2018-09-08T22:33:39.592Z,16.43
2018-09-08T22:36:12.898Z,16.45
2018-09-08T22:38:46.255Z,16.45
2018-09-08T22:41:19.571Z,16.47
2018-09-08T22:43:52.867Z,16.49
2018-09-08T22:46:26.165Z,16.49
2018-09-08T22:48:59.541Z,16.48
2018-09-08T22:51:32.874Z,16.48
2018-09-08T22:54:06.709Z,16.48
2018-09-08T22:56:40.025Z,16.46
2018-09-08T22:59:13.362Z,16.45
2018-09-08T23:01:46.670Z,16.42
2018-09-08T23:04:20.005Z,16.43
2018-09-08T23:06:53.296Z,16.41
2018-09-08T23:09:26.613Z,16.40
2018-09-08T23:11:59.910Z,16.39
2018-09-08T23:14:33.213Z,16.41
2018-09-08T23:17:06.780Z,16.44
2018-09-08T23:19:40.102Z,16.44
2018-09-08T23:22:13.400Z,16.44
2018-09-08T23:24:46.821Z,16.43
2018-09-08T23:27:20.121Z,16.42
2018-09-08T23:29:53.620Z,16.40
2018-09-08T23:32:27.344Z,16.39
2018-09-08T23:35:00.718Z,16.36
2018-09-08T23:37:34.017Z,16.32
2018-09-08T23:40:07.352Z,16.33
2018-09-08T23:42:40.752Z,16.34
2018-09-08T23:45:14.185Z,16.36
2018-09-08T23:47:47.491Z,16.35
2018-09-08T23:50:20.837Z,16.36
2018-09-08T23:52:54.105Z,16.37
2018-09-08T23:55:27.426Z,16.40
2018-09-08T23:58:01.263Z,16.40
